Time;durP1;ratioP1;P1;durP2;ratioP2;P2;SDS_P1;SDS_P2;PMS_P1;PMS_P2;Temp;Humidity;BMP_temperature;BMP_pressure;BME280_temperature;BME280_humidity;BME280_pressure;Samples;Min_cycle;Max_cycle;Signal;HPM_P1;HPM_P2
2021/04/03 00:02:07;;;;;;;2.88;1.20;;;21.20;45.90;;;;;;5070205;28;20132;-57
2021/04/03 00:04:33;;;;;;;2.88;1.38;;;21.20;45.80;;;;;;5086363;28;20024;-49
2021/04/03 00:06:58;;;;;;;2.35;1.33;;;21.10;45.70;;;;;;5071100;28;20454;-53
2021/04/03 00:09:24;;;;;;;2.00;1.10;;;21.20;45.80;;;;;;5081230;28;20119;-58
2021/04/03 00:11:50;;;;;;;4.35;1.42;;;21.10;45.70;;;;;;5089284;28;20518;-53
2021/04/03 00:14:16;;;;;;;3.42;1.13;;;21.10;45.60;;;;;;5089591;28;20052;-56
2021/04/03 00:16:41;;;;;;;1.92;1.00;;;21.10;45.70;;;;;;5075341;28;20033;-55
2021/04/03 00:19:07;;;;;;;2.17;1.05;;;21.10;45.60;;;;;;5069998;28;20047;-54
2021/04/03 00:21:33;;;;;;;2.30;1.50;;;21.10;45.60;;;;;;5074886;28;20473;-60
2021/04/03 00:23:59;;;;;;;2.92;1.35;;;21.10;45.50;;;;;;5090931;28;20032;-55
2021/04/03 00:26:24;;;;;;;3.40;1.48;;;21.10;45.50;;;;;;5072567;28;20033;-55
2021/04/03 00:28:50;;;;;;;3.85;1.58;;;21.10;45.50;;;;;;5083934;28;20028;-55
2021/04/03 00:31:18;;;;;;;4.43;1.70;;;21.10;45.50;;;;;;5089825;28;20369;-55
2021/04/03 00:33:43;;;;;;;2.92;1.05;;;21.20;45.50;;;;;;5090223;28;20028;-55
2021/04/03 00:36:09;;;;;;;3.42;1.08;;;21.10;45.40;;;;;;5073956;28;20028;-56
2021/04/03 00:38:35;;;;;;;2.03;1.15;;;21.10;45.30;;;;;;5074679;28;20039;-54
2021/04/03 00:41:01;;;;;;;2.20;1.23;;;21.10;45.30;;;;;;5091669;28;20021;-64
2021/04/03 00:43:26;;;;;;;1.85;1.10;;;21.10;45.30;;;;;;5093874;28;20028;-55
2021/04/03 00:45:53;;;;;;;1.90;1.20;;;21.10;45.30;;;;;;5093934;28;20480;-55
2021/04/03 00:48:19;;;;;;;3.88;1.30;;;21.10;45.30;;;;;;5093118;28;20066;-56
2021/04/03 00:50:47;;;;;;;4.03;1.60;;;21.10;45.20;;;;;;5085344;28;20043;-54
2021/04/03 00:53:16;;;;;;;2.50;1.10;;;21.10;45.20;;;;;;5093210;28;20020;-57
2021/04/03 00:55:42;;;;;;;3.20;1.52;;;21.10;45.10;;;;;;5076925;28;20485;-54
2021/04/03 00:58:08;;;;;;;2.58;1.20;;;21.10;45.10;;;;;;5073430;28;20032;-54
2021/04/03 01:00:34;;;;;;;3.70;1.42;;;21.10;45.10;;;;;;5083050;28;20051;-55
2021/04/03 01:03:00;;;;;;;2.13;1.10;;;21.10;45.10;;;;;;5074726;28;20454;-55
2021/04/03 01:05:27;;;;;;;2.60;1.42;;;21.10;45.00;;;;;;5074048;28;20444;-52
2021/04/03 01:07:54;;;;;;;2.08;0.98;;;21.10;45.00;;;;;;5088675;28;20064;-57
2021/04/03 01:10:26;;;;;;;3.15;1.27;;;21.10;44.90;;;;;;5092406;28;20028;-55
2021/04/03 01:12:58;;;;;;;1.50;1.10;;;21.10;44.90;;;;;;5092265;28;20087;-56
2021/04/03 01:15:29;;;;;;;2.78;0.90;;;21.10;44.80;;;;;;5092965;28;20453;-56
2021/04/03 01:18:12;;;;;;;3.42;1.25;;;21.10;44.80;;;;;;5075249;28;20074;-54
2021/04/03 01:20:54;;;;;;;2.50;1.10;;;21.10;44.70;;;;;;5073891;28;20031;-55
2021/04/03 01:23:57;;;;;;;3.50;1.20;;;21.10;44.70;;;;;;5073226;28;20043;-55
2021/04/03 01:26:43;;;;;;;4.43;1.10;;;21.10;44.70;;;;;;5087707;28;20614;-57
2021/04/03 01:29:33;;;;;;;2.13;1.10;;;21.10;44.70;;;;;;5077894;28;20024;-56
2021/04/03 01:32:03;;;;;;;1.98;1.08;;;21.10;44.60;;;;;;5087241;28;20036;-54
2021/04/03 01:34:31;;;;;;;6.80;2.00;;;21.10;44.60;;;;;;5074879;28;20037;-54
2021/04/03 01:37:02;;;;;;;1.83;1.00;;;21.10;44.60;;;;;;5078043;28;20487;-50
2021/04/03 01:39:30;;;;;;;4.10;1.05;;;21.10;44.60;;;;;;5093002;28;20119;-55
2021/04/03 01:42:00;;;;;;;2.78;1.33;;;21.10;44.60;;;;;;5093693;28;20080;-56
2021/04/03 01:44:31;;;;;;;3.50;1.58;;;21.10;44.50;;;;;;5091019;28;20493;-44
2021/04/03 01:46:58;;;;;;;2.40;1.30;;;21.10;44.50;;;;;;5084481;28;20390;-63
2021/04/03 01:49:25;;;;;;;2.42;1.00;;;21.10;44.50;;;;;;5072137;28;20503;-53
2021/04/03 01:51:52;;;;;;;3.40;1.52;;;21.10;44.50;;;;;;5081275;28;20020;-54
2021/04/03 01:54:20;;;;;;;4.85;1.48;;;21.10;44.40;;;;;;5072238;28;20024;-53
2021/04/03 01:56:49;;;;;;;2.38;0.93;;;21.10;44.30;;;;;;5073955;28;20028;-55
2021/04/03 01:59:16;;;;;;;3.05;1.45;;;21.10;44.30;;;;;;5084689;28;20137;-53
2021/04/03 02:01:43;;;;;;;4.13;0.98;;;21.10;44.30;;;;;;5092747;28;20024;-54
2021/04/03 02:04:12;;;;;;;1.90;1.00;;;21.10;44.30;;;;;;5082899;28;20032;-55
2021/04/03 02:06:41;;;;;;;3.67;1.10;;;21.10;44.30;;;;;;5072984;28;20020;-57
2021/04/03 02:09:09;;;;;;;2.42;1.05;;;21.10;44.20;;;;;;5075233;28;20107;-65
2021/04/03 02:11:43;;;;;;;4.47;1.10;;;21.10;44.20;;;;;;5091621;28;20038;-59
2021/04/03 02:14:10;;;;;;;1.67;1.00;;;21.10;44.10;;;;;;5071112;28;20090;-46
2021/04/03 02:16:36;;;;;;;2.92;1.15;;;21.10;44.20;;;;;;5074334;28;20097;-54
2021/04/03 02:19:07;;;;;;;3.10;1.25;;;21.10;44.10;;;;;;5071928;28;20047;-54
2021/04/03 02:21:34;;;;;;;3.20;0.90;;;21.10;44.10;;;;;;5073353;28;20053;-58
2021/04/03 02:24:00;;;;;;;1.85;1.10;;;21.10;44.00;;;;;;5078061;28;20031;-55
2021/04/03 02:26:29;;;;;;;1.45;1.00;;;21.10;44.00;;;;;;5090791;28;20433;-53
2021/04/03 02:28:55;;;;;;;1.83;0.93;;;21.10;44.00;;;;;;5092197;28;20036;-56
2021/04/03 02:31:21;;;;;;;2.20;0.80;;;21.00;44.00;;;;;;5081910;28;20052;-56
2021/04/03 02:33:47;;;;;;;1.88;1.15;;;21.10;44.00;;;;;;5073554;28;20427;-56
2021/04/03 02:36:12;;;;;;;4.32;1.25;;;21.00;43.90;;;;;;5071423;28;20034;-53
2021/04/03 02:38:38;;;;;;;1.33;0.90;;;21.10;44.00;;;;;;5073481;28;20033;-54
2021/04/03 02:41:06;;;;;;;1.42;0.90;;;21.10;43.90;;;;;;5073141;28;20082;-64
2021/04/03 02:43:43;;;;;;;2.95;1.10;;;21.10;43.80;;;;;;5079344;28;20032;-55
2021/04/03 02:46:18;;;;;;;2.50;1.10;;;21.10;43.90;;;;;;5080588;28;20036;-55
2021/04/03 02:48:49;;;;;;;2.28;1.13;;;21.00;43.80;;;;;;5074985;28;20032;-55
2021/04/03 02:51:20;;;;;;;3.23;1.07;;;21.10;43.80;;;;;;5089908;28;20072;-53
2021/04/03 02:53:47;;;;;;;3.55;1.00;;;21.10;43.80;;;;;;5091888;28;20278;-52
2021/04/03 02:56:14;;;;;;;1.58;0.90;;;21.00;43.80;;;;;;5084650;28;20036;-55
2021/04/03 02:58:40;;;;;;;1.77;1.05;;;21.10;43.80;;;;;;5086817;28;20176;-54
2021/04/03 03:01:11;;;;;;;3.97;1.27;;;21.00;44.40;;;;;;5087634;28;20111;-63
2021/04/03 03:03:37;;;;;;;2.03;1.02;;;21.00;43.70;;;;;;5087034;28;20028;-54
2021/04/03 03:06:04;;;;;;;3.67;1.52;;;21.00;43.70;;;;;;5091002;28;20122;-59
2021/04/03 03:08:31;;;;;;;3.63;1.00;;;21.00;43.70;;;;;;5082476;28;20130;-55
2021/04/03 03:10:57;;;;;;;1.98;1.23;;;21.00;43.60;;;;;;5091636;28;20035;-54
2021/04/03 03:13:25;;;;;;;1.90;0.85;;;21.10;43.70;;;;;;5087961;28;20125;-55
2021/04/03 03:15:50;;;;;;;2.25;1.00;;;21.00;43.50;;;;;;5076634;28;20351;-54
2021/04/03 03:18:16;;;;;;;1.60;0.90;;;21.00;43.60;;;;;;5078781;28;20043;-50
2021/04/03 03:20:43;;;;;;;1.48;0.75;;;21.00;43.60;;;;;;5074546;28;20505;-52
2021/04/03 03:23:11;;;;;;;4.57;0.95;;;21.10;43.60;;;;;;5075646;28;20056;-63
2021/04/03 03:25:38;;;;;;;1.35;0.95;;;21.00;43.50;;;;;;5071913;28;20094;-55
2021/04/03 03:28:04;;;;;;;2.63;1.00;;;21.10;43.60;;;;;;5072809;28;20025;-54
2021/04/03 03:30:31;;;;;;;2.38;0.90;;;21.00;43.50;;;;;;5078660;28;20031;-58
2021/04/03 03:32:56;;;;;;;1.33;0.90;;;21.00;43.50;;;;;;5074875;28;20090;-55
2021/04/03 03:35:22;;;;;;;1.60;0.73;;;21.00;43.40;;;;;;5084645;28;20469;-54
2021/04/03 03:37:48;;;;;;;3.00;0.90;;;21.00;43.50;;;;;;5090875;28;20020;-55
2021/04/03 03:40:16;;;;;;;3.10;1.27;;;21.00;43.40;;;;;;5078937;28;20052;-54
2021/04/03 03:42:43;;;;;;;3.05;0.82;;;21.00;43.40;;;;;;5071773;28;20085;-57
2021/04/03 03:45:10;;;;;;;1.67;0.98;;;21.00;43.40;;;;;;5071123;28;20037;-64
2021/04/03 03:47:36;;;;;;;2.28;0.95;;;21.00;43.40;;;;;;5079540;28;20029;-55
2021/04/03 03:50:03;;;;;;;1.92;1.10;;;21.00;43.40;;;;;;5086652;28;20036;-55
2021/04/03 03:52:28;;;;;;;2.60;0.85;;;21.00;43.30;;;;;;5088413;28;20031;-57
2021/04/03 03:54:54;;;;;;;1.70;0.90;;;21.00;43.20;;;;;;5091214;28;20024;-53
2021/04/03 03:57:20;;;;;;;2.42;1.08;;;21.00;43.30;;;;;;5088218;28;20141;-51
2021/04/03 03:59:45;;;;;;;1.55;0.85;;;21.00;43.30;;;;;;5082976;28;20040;-55
2021/04/03 04:02:11;;;;;;;2.47;0.85;;;21.00;43.30;;;;;;5090508;28;20048;-56
2021/04/03 04:04:37;;;;;;;2.80;1.08;;;21.00;43.30;;;;;;5083270;28;20020;-52
2021/04/03 04:07:02;;;;;;;1.38;1.00;;;21.00;43.30;;;;;;5071306;28;20021;-55
2021/04/03 04:09:29;;;;;;;2.22;0.90;;;21.00;43.30;;;;;;5082122;28;20592;-54
2021/04/03 04:11:55;;;;;;;2.00;0.90;;;21.00;43.30;;;;;;5092557;28;20047;-56
2021/04/03 04:14:20;;;;;;;1.08;0.90;;;21.00;43.20;;;;;;5081269;28;20426;-52
2021/04/03 04:16:46;;;;;;;1.75;0.90;;;21.00;43.20;;;;;;5082153;28;20373;-56
2021/04/03 04:19:12;;;;;;;2.60;0.93;;;21.00;43.30;;;;;;5090462;28;20409;-55
2021/04/03 04:21:37;;;;;;;1.92;0.70;;;21.00;43.20;;;;;;5093431;28;20048;-55
2021/04/03 04:24:03;;;;;;;3.33;1.13;;;21.00;43.20;;;;;;5092269;28;20036;-58
2021/04/03 04:26:29;;;;;;;1.35;0.82;;;21.00;43.20;;;;;;5081754;28;20031;-54
2021/04/03 04:28:55;;;;;;;1.23;0.68;;;21.00;43.10;;;;;;5082723;28;20095;-54
2021/04/03 04:31:21;;;;;;;1.58;0.70;;;21.00;43.20;;;;;;5091194;28;20028;-53
2021/04/03 04:33:46;;;;;;;3.17;1.23;;;21.00;43.20;;;;;;5094732;28;20027;-56
2021/04/03 04:36:12;;;;;;;2.08;0.90;;;21.00;43.20;;;;;;5079648;28;20044;-57
2021/04/03 04:38:38;;;;;;;1.40;0.80;;;21.00;43.20;;;;;;5074466;28;20095;-53
2021/04/03 04:41:03;;;;;;;2.83;0.80;;;21.00;43.10;;;;;;5077703;28;20027;-55
2021/04/03 04:43:29;;;;;;;1.65;0.85;;;21.00;43.10;;;;;;5093459;28;20012;-55
2021/04/03 04:45:55;;;;;;;3.13;1.13;;;21.00;43.00;;;;;;5083506;28;20059;-55
2021/04/03 04:48:21;;;;;;;2.08;0.80;;;21.00;43.00;;;;;;5082879;28;20029;-55
2021/04/03 04:50:46;;;;;;;3.83;0.90;;;21.00;43.00;;;;;;5081253;28;20016;-54
2021/04/03 04:53:12;;;;;;;1.58;0.90;;;21.00;43.10;;;;;;5082909;28;20487;-56
2021/04/03 04:55:38;;;;;;;3.10;1.13;;;21.00;43.10;;;;;;5093770;28;20020;-55
2021/04/03 04:58:03;;;;;;;1.70;0.80;;;21.00;43.10;;;;;;5093484;28;20038;-61
2021/04/03 05:00:29;;;;;;;3.53;1.10;;;21.00;43.00;;;;;;5087513;28;20035;-55
2021/04/03 05:02:56;;;;;;;1.13;0.77;;;21.00;42.90;;;;;;5081667;28;20040;-55
2021/04/03 05:05:21;;;;;;;3.40;1.15;;;21.00;43.00;;;;;;5073303;28;20051;-55
2021/04/03 05:07:47;;;;;;;3.03;1.25;;;21.00;43.00;;;;;;5092928;28;20032;-48
2021/04/03 05:10:13;;;;;;;2.53;0.60;;;21.00;42.90;;;;;;5084509;28;20404;-58
2021/04/03 05:12:39;;;;;;;1.55;0.90;;;21.00;43.00;;;;;;5074935;28;20572;-53
2021/04/03 05:15:06;;;;;;;1.33;0.70;;;21.00;43.00;;;;;;5074539;28;20412;-55
2021/04/03 05:17:31;;;;;;;2.38;0.60;;;21.00;43.00;;;;;;5076084;28;20029;-54
2021/04/03 05:19:57;;;;;;;5.05;1.20;;;21.00;42.90;;;;;;5086668;28;20097;-53
2021/04/03 05:22:23;;;;;;;1.70;0.70;;;21.00;42.90;;;;;;5073041;28;20094;-62
2021/04/03 05:24:49;;;;;;;2.03;1.13;;;21.00;42.80;;;;;;5084126;28;20366;-56
2021/04/03 05:27:14;;;;;;;1.67;0.80;;;21.00;42.80;;;;;;5091435;28;20465;-51
2021/04/03 05:29:40;;;;;;;6.45;1.08;;;21.00;42.70;;;;;;5092599;28;20031;-55
2021/04/03 05:32:06;;;;;;;2.28;0.70;;;21.00;43.00;;;;;;5073605;28;20025;-64
2021/04/03 05:34:32;;;;;;;3.53;0.95;;;21.00;43.00;;;;;;5072665;28;20067;-58
2021/04/03 05:36:58;;;;;;;5.57;0.80;;;21.00;43.00;;;;;;5076245;28;20056;-60
2021/04/03 05:39:23;;;;;;;4.95;0.90;;;21.00;42.90;;;;;;5088300;28;20039;-61
2021/04/03 05:41:49;;;;;;;1.80;0.90;;;21.00;42.90;;;;;;5074754;28;20094;-61
2021/04/03 05:44:16;;;;;;;3.67;0.90;;;21.00;43.10;;;;;;5087625;28;20031;-62
2021/04/03 05:46:46;;;;;;;5.30;0.90;;;21.00;43.20;;;;;;5086870;28;20032;-62
2021/04/03 05:49:12;;;;;;;4.18;1.10;;;21.00;43.10;;;;;;5082847;28;20028;-67
2021/04/03 05:51:38;;;;;;;3.10;0.90;;;21.10;43.40;;;;;;5092680;28;20086;-60
2021/04/03 05:54:05;;;;;;;3.67;1.00;;;21.20;43.20;;;;;;5085353;28;20028;-59
2021/04/03 05:56:30;;;;;;;4.68;0.77;;;21.20;43.40;;;;;;5083712;28;20598;-62
2021/04/03 05:58:56;;;;;;;8.35;1.15;;;21.20;43.20;;;;;;5084218;28;20038;-63
2021/04/03 06:01:22;;;;;;;4.07;1.17;;;21.20;43.10;;;;;;5081082;28;20037;-59
2021/04/03 06:03:48;;;;;;;2.38;0.73;;;21.20;43.10;;;;;;5086142;28;20020;-58
2021/04/03 06:06:15;;;;;;;4.85;1.10;;;21.10;43.00;;;;;;5083131;28;20039;-61
2021/04/03 06:08:41;;;;;;;4.45;1.00;;;21.10;43.10;;;;;;5080809;28;20112;-60
2021/04/03 06:11:18;;;;;;;4.30;0.90;;;21.20;43.00;;;;;;5082528;28;20035;-59
2021/04/03 06:14:04;;;;;;;9.40;1.27;;;21.10;43.20;;;;;;5082991;28;20056;-60
2021/04/03 06:16:37;;;;;;;2.53;0.60;;;21.10;43.10;;;;;;5082971;28;20082;-60
2021/04/03 06:19:14;;;;;;;4.75;0.60;;;21.20;43.00;;;;;;5081643;28;20546;-61
2021/04/03 06:21:42;;;;;;;6.55;1.30;;;21.20;43.10;;;;;;5081089;28;20024;-51
2021/04/03 06:24:18;;;;;;;2.05;0.95;;;21.20;43.20;;;;;;5083400;28;20028;-62
2021/04/03 06:27:07;;;;;;;3.05;0.98;;;21.20;43.10;;;;;;5080685;28;20028;-58
2021/04/03 06:29:49;;;;;;;3.95;0.70;;;21.20;43.00;;;;;;5081386;28;20024;-62
2021/04/03 06:32:35;;;;;;;5.13;1.05;;;21.20;43.00;;;;;;5082603;28;20043;-63
2021/04/03 06:35:01;;;;;;;2.75;0.80;;;21.20;43.00;;;;;;5081235;28;20301;-54
2021/04/03 06:37:29;;;;;;;2.38;0.80;;;21.20;42.90;;;;;;5082755;28;20054;-62
2021/04/03 06:40:11;;;;;;;4.18;1.63;;;21.20;42.90;;;;;;5079699;28;20473;-64
2021/04/03 06:42:46;;;;;;;;;;;21.20;42.80;;;;;;5082568;28;20617;-62
2021/04/03 06:45:47;;;;;;;1.83;0.90;;;21.20;43.00;;;;;;5083115;28;19916;-58
2021/04/03 06:48:14;;;;;;;4.78;0.90;;;21.20;43.00;;;;;;5079147;28;20036;-63
2021/04/03 06:50:44;;;;;;;2.80;1.20;;;21.20;42.90;;;;;;5078246;28;20066;-63
2021/04/03 06:53:12;;;;;;;3.50;1.05;;;21.20;43.10;;;;;;5075627;28;20027;-62
2021/04/03 06:55:40;;;;;;;3.15;0.80;;;21.30;43.30;;;;;;5083239;28;20058;-54
2021/04/03 06:58:06;;;;;;;5.75;0.90;;;21.30;43.30;;;;;;5082464;28;20392;-62
2021/04/03 07:00:34;;;;;;;2.75;0.95;;;21.30;43.20;;;;;;5079778;28;20255;-65
2021/04/03 07:03:05;;;;;;;5.95;0.90;;;21.40;43.20;;;;;;5077425;28;20386;-63
2021/04/03 07:05:35;;;;;;;4.40;1.58;;;21.40;43.20;;;;;;5078316;28;20110;-63
2021/04/03 07:08:06;;;;;;;6.57;0.75;;;21.40;43.00;;;;;;5083603;28;20035;-63
2021/04/03 07:10:33;;;;;;;2.35;0.82;;;21.40;43.00;;;;;;5081572;28;20024;-64
2021/04/03 07:13:00;;;;;;;4.75;0.82;;;21.40;43.00;;;;;;5076467;28;20040;-62
2021/04/03 07:15:27;;;;;;;3.40;0.60;;;21.40;42.90;;;;;;5073753;28;20029;-66
2021/04/03 07:17:54;;;;;;;3.30;1.52;;;21.50;42.90;;;;;;5082345;28;20361;-62
2021/04/03 07:20:25;;;;;;;4.18;1.17;;;21.50;42.90;;;;;;5075953;28;20048;-63
2021/04/03 07:23:11;;;;;;;3.83;0.93;;;21.50;42.90;;;;;;5074394;28;20142;-62
2021/04/03 07:25:42;;;;;;;6.15;1.17;;;21.50;42.80;;;;;;5081675;28;20129;-62
2021/04/03 07:28:08;;;;;;;3.38;0.77;;;21.50;42.70;;;;;;5083355;28;20043;-63
2021/04/03 07:30:39;;;;;;;3.33;0.95;;;21.60;42.70;;;;;;5080840;28;20016;-61
2021/04/03 07:33:18;;;;;;;1.67;0.85;;;21.60;42.90;;;;;;5079405;28;20031;-63
2021/04/03 07:35:49;;;;;;;5.80;1.00;;;21.60;43.00;;;;;;5081183;28;20045;-63
2021/04/03 07:38:20;;;;;;;3.47;0.65;;;21.70;43.80;;;;;;5080010;28;20136;-63
2021/04/03 07:40:48;;;;;;;9.55;1.27;;;21.70;43.90;;;;;;5081550;28;20039;-65
2021/04/03 07:43:33;;;;;;;3.13;0.93;;;21.60;42.20;;;;;;5081122;28;20028;-63
2021/04/03 07:46:01;;;;;;;5.72;1.23;;;21.50;41.70;;;;;;5085222;28;20020;-65
2021/04/03 07:48:46;;;;;;;4.00;1.30;;;21.60;41.70;;;;;;5082324;28;20035;-65
2021/04/03 07:51:12;;;;;;;9.18;1.38;;;21.60;42.60;;;;;;5086923;28;20055;-62
2021/04/03 07:53:43;;;;;;;8.23;2.58;;;21.70;42.50;;;;;;5083873;28;20124;-62
2021/04/03 07:56:11;;;;;;;9.70;1.48;;;21.70;42.60;;;;;;5085788;28;20032;-62
2021/04/03 07:58:45;;;;;;;6.15;1.42;;;21.70;42.10;;;;;;5086818;28;20040;-54
2021/04/03 08:01:10;;;;;;;5.90;1.40;;;21.80;41.80;;;;;;5085697;28;20038;-61
2021/04/03 08:03:36;;;;;;;6.03;1.45;;;21.80;41.80;;;;;;5082900;28;20021;-62
2021/04/03 08:06:09;;;;;;;4.63;1.70;;;21.70;42.20;;;;;;5085043;28;20028;-59
2021/04/03 08:08:39;;;;;;;4.60;1.20;;;21.70;43.10;;;;;;5082930;28;20028;-62
2021/04/03 08:11:17;;;;;;;7.38;1.85;;;21.70;42.20;;;;;;5085358;28;20033;-62
2021/04/03 08:13:48;;;;;;;6.03;1.30;;;21.70;41.20;;;;;;5081170;28;20066;-62
2021/04/03 08:16:15;;;;;;;4.63;1.50;;;21.70;40.60;;;;;;5085363;28;20142;-64
2021/04/03 08:18:44;;;;;;;9.27;1.38;;;21.80;40.50;;;;;;5084290;28;20033;-61
2021/04/03 08:21:10;;;;;;;8.98;1.10;;;21.70;41.40;;;;;;5083542;28;20081;-63
2021/04/03 08:23:41;;;;;;;4.65;1.20;;;21.70;41.70;;;;;;5081119;28;20086;-64
2021/04/03 08:26:08;;;;;;;5.60;1.27;;;21.70;40.40;;;;;;5078140;28;20038;-63
2021/04/03 08:28:35;;;;;;;6.15;1.45;;;21.70;41.10;;;;;;5090574;28;20916;-63
2021/04/03 08:31:20;;;;;;;5.97;1.38;;;21.60;40.30;;;;;;5082262;28;20032;-62
2021/04/03 08:33:54;;;;;;;4.05;1.50;;;21.60;41.50;;;;;;5081607;28;20491;-61
2021/04/03 08:36:41;;;;;;;8.68;1.58;;;21.60;40.70;;;;;;5080881;28;20029;-63
2021/04/03 08:39:10;;;;;;;5.80;1.45;;;21.60;39.80;;;;;;5083865;28;20044;-62
2021/04/03 08:41:38;;;;;;;2.83;1.42;;;21.60;39.50;;;;;;5080600;28;20039;-63
2021/04/03 08:44:25;;;;;;;3.40;1.02;;;21.70;39.70;;;;;;5078127;28;20027;-64
2021/04/03 08:46:53;;;;;;;5.20;1.15;;;21.60;39.80;;;;;;5079885;28;20386;-65
2021/04/03 08:49:28;;;;;;;6.78;2.03;;;21.70;39.70;;;;;;5082915;28;20040;-65
2021/04/03 08:51:53;;;;;;;4.03;1.17;;;21.70;39.60;;;;;;5086098;28;20109;-64
2021/04/03 08:54:19;;;;;;;11.15;1.65;;;21.70;39.20;;;;;;5085519;28;20160;-63
2021/04/03 08:56:45;;;;;;;5.28;1.15;;;21.70;39.40;;;;;;5090231;28;20040;-63
2021/04/03 08:59:14;;;;;;;7.72;1.10;;;21.70;39.00;;;;;;5087312;28;20481;-61
2021/04/03 09:01:57;;;;;;;3.60;1.05;;;21.70;38.90;;;;;;5093293;28;20028;-63
2021/04/03 09:04:23;;;;;;;4.03;1.20;;;21.70;38.80;;;;;;5075307;28;20025;-63
2021/04/03 09:06:55;;;;;;;5.20;1.05;;;21.60;39.50;;;;;;5092415;28;20020;-63
2021/04/03 09:09:29;;;;;;;4.15;1.35;;;21.70;38.50;;;;;;5084752;28;20021;-63
2021/04/03 09:12:10;;;;;;;7.10;1.40;;;21.60;38.20;;;;;;5073432;28;20060;-63
2021/04/03 09:14:40;;;;;;;3.15;1.02;;;21.70;38.20;;;;;;5090674;28;20044;-63
2021/04/03 09:17:27;;;;;;;7.57;1.70;;;21.70;38.40;;;;;;5087211;28;20399;-64
2021/04/03 09:20:13;;;;;;;6.45;1.52;;;21.60;39.60;;;;;;5092810;28;20036;-64
2021/04/03 09:22:43;;;;;;;3.55;1.25;;;21.60;38.30;;;;;;5091461;28;20034;-64
2021/04/03 09:25:21;;;;;;;5.70;2.60;;;21.60;38.20;;;;;;5091799;28;20062;-64
2021/04/03 09:28:10;;;;;;;4.32;1.23;;;21.50;38.70;;;;;;5078633;28;20036;-63
2021/04/03 09:30:38;;;;;;;4.97;1.15;;;21.60;38.20;;;;;;5086373;28;20031;-64
2021/04/03 09:33:17;;;;;;;5.10;1.70;;;21.60;37.90;;;;;;5092869;28;20172;-63
2021/04/03 09:35:43;;;;;;;5.55;1.42;;;21.60;38.50;;;;;;5073513;28;20028;-62
2021/04/03 09:38:09;;;;;;;10.82;1.70;;;21.60;38.00;;;;;;5073212;28;20064;-62
2021/04/03 09:40:42;;;;;;;5.25;1.13;;;21.60;37.30;;;;;;5074923;28;20095;-53
2021/04/03 09:43:12;;;;;;;7.97;1.30;;;21.60;38.00;;;;;;5082875;28;20115;-61
2021/04/03 09:45:38;;;;;;;6.20;2.33;;;21.60;38.20;;;;;;5068886;28;20040;-62
2021/04/03 09:48:06;;;;;;;4.20;1.33;;;21.60;37.90;;;;;;5069363;28;20044;-63
2021/04/03 09:50:32;;;;;;;4.20;1.50;;;21.60;37.40;;;;;;5032857;28;20497;-63
2021/04/03 09:53:06;;;;;;;2.17;1.00;;;21.60;37.90;;;;;;5050953;28;20059;-62
2021/04/03 09:55:32;;;;;;;5.65;1.40;;;21.70;37.50;;;;;;5050362;28;20037;-65
2021/04/03 09:57:58;;;;;;;4.30;1.23;;;21.70;37.70;;;;;;5049431;28;20081;-63
2021/04/03 10:00:24;;;;;;;3.55;1.35;;;21.70;37.70;;;;;;5064453;28;20467;-65
2021/04/03 10:02:49;;;;;;;3.05;1.00;;;21.60;37.60;;;;;;5055768;28;20028;-64
2021/04/03 10:05:15;;;;;;;5.97;1.40;;;21.60;37.40;;;;;;5050346;28;20543;-63
2021/04/03 10:07:41;;;;;;;6.85;1.63;;;21.60;37.70;;;;;;5050295;28;20082;-62
2021/04/03 10:10:07;;;;;;;4.93;1.10;;;21.60;37.70;;;;;;5058789;28;20077;-62
2021/04/03 10:12:33;;;;;;;4.30;1.40;;;21.60;38.10;;;;;;5067105;28;20040;-62
2021/04/03 10:14:59;;;;;;;5.28;1.25;;;21.60;38.10;;;;;;5069461;28;20036;-63
2021/04/03 10:17:24;;;;;;;3.70;1.30;;;21.60;39.40;;;;;;5066316;28;20485;-62
2021/04/03 10:19:50;;;;;;;4.90;1.27;;;21.60;40.10;;;;;;5059800;28;20148;-63
2021/04/03 10:22:15;;;;;;;3.75;1.58;;;21.60;40.10;;;;;;5060323;28;20314;-62
2021/04/03 10:24:41;;;;;;;6.13;2.17;;;21.70;38.80;;;;;;5052685;28;20523;-63
2021/04/03 10:27:07;;;;;;;2.95;1.60;;;21.50;38.80;;;;;;5058404;28;20044;-63
2021/04/03 10:29:33;;;;;;;4.13;1.40;;;21.40;37.80;;;;;;5066983;28;20602;-64
2021/04/03 10:31:59;;;;;;;5.68;1.70;;;21.50;38.10;;;;;;5056814;28;20032;-60
2021/04/03 10:34:24;;;;;;;5.43;1.40;;;21.60;37.30;;;;;;5039214;28;20027;-63
2021/04/03 10:36:50;;;;;;;8.90;1.58;;;21.70;38.70;;;;;;5032912;28;20017;-63
2021/04/03 10:39:16;;;;;;;5.32;1.25;;;21.80;38.10;;;;;;5052808;28;20470;-63
2021/04/03 10:41:41;;;;;;;2.60;1.20;;;21.90;37.90;;;;;;5069770;28;20373;-63
2021/04/03 10:44:07;;;;;;;4.80;1.67;;;21.90;37.70;;;;;;5069372;28;20024;-65
2021/04/03 10:46:32;;;;;;;4.32;1.40;;;21.90;37.80;;;;;;5068718;28;20032;-63
2021/04/03 10:48:58;;;;;;;4.47;1.27;;;21.90;37.50;;;;;;5070414;28;20028;-64
2021/04/03 10:51:24;;;;;;;6.57;1.30;;;21.90;37.30;;;;;;5063206;28;20547;-63
2021/04/03 10:53:49;;;;;;;5.72;0.90;;;21.90;37.20;;;;;;5052039;28;20036;-61
2021/04/03 10:56:18;;;;;;;4.68;1.40;;;21.90;36.90;;;;;;5051789;28;20041;-62
2021/04/03 10:58:47;;;;;;;4.10;1.30;;;21.90;36.50;;;;;;5060939;28;20489;-56
2021/04/03 11:01:13;;;;;;;4.85;1.45;;;21.80;36.30;;;;;;5063646;28;20040;-62
2021/04/03 11:03:39;;;;;;;9.20;1.30;;;21.80;36.60;;;;;;5052167;28;20053;-65
2021/04/03 11:06:05;;;;;;;4.57;1.15;;;21.80;36.20;;;;;;5069416;28;20036;-62
2021/04/03 11:08:30;;;;;;;4.05;1.13;;;21.70;36.20;;;;;;5069430;28;20066;-61
2021/04/03 11:10:57;;;;;;;2.42;1.15;;;21.70;35.40;;;;;;5054151;28;20052;-62
2021/04/03 11:13:22;;;;;;;5.13;1.10;;;21.60;35.70;;;;;;5070930;28;20044;-61
2021/04/03 11:15:48;;;;;;;3.97;1.15;;;21.50;34.40;;;;;;5072052;28;20048;-61
2021/04/03 11:18:15;;;;;;;4.57;1.30;;;21.50;34.20;;;;;;5089744;28;20110;-62
2021/04/03 11:20:40;;;;;;;7.13;0.93;;;21.60;34.60;;;;;;5090565;28;20042;-60
2021/04/03 11:23:06;;;;;;;5.30;1.38;;;21.60;34.80;;;;;;5074026;28;20460;-59
2021/04/03 11:25:33;;;;;;;5.68;1.10;;;21.60;35.00;;;;;;5082999;28;20389;-58
2021/04/03 11:27:59;;;;;;;4.78;1.17;;;21.70;36.50;;;;;;5083059;28;20037;-60
2021/04/03 11:30:25;;;;;;;4.88;1.23;;;21.70;36.20;;;;;;5070902;28;20059;-60
2021/04/03 11:32:51;;;;;;;3.90;1.27;;;21.70;36.20;;;;;;5071578;28;20028;-58
2021/04/03 11:35:19;;;;;;;4.68;0.82;;;21.80;35.70;;;;;;5078941;28;20086;-63
2021/04/03 11:37:45;;;;;;;5.13;1.33;;;21.70;35.90;;;;;;5083658;28;20024;-47
2021/04/03 11:40:14;;;;;;;4.68;1.30;;;21.70;36.30;;;;;;5085396;28;20047;-49
2021/04/03 11:42:39;;;;;;;7.13;1.77;;;21.70;36.20;;;;;;5070556;28;20024;-56
2021/04/03 11:45:07;;;;;;;4.65;1.02;;;21.60;35.80;;;;;;5083024;28;20031;-47
2021/04/03 11:47:34;;;;;;;3.88;1.08;;;21.60;36.10;;;;;;5072730;28;20481;-61
2021/04/03 11:50:00;;;;;;;2.03;0.80;;;21.60;36.40;;;;;;5071571;28;20036;-59
2021/04/03 11:52:30;;;;;;;3.60;1.38;;;21.60;36.30;;;;;;5083119;28;20082;-61
2021/04/03 11:54:56;;;;;;;10.52;1.63;;;21.60;35.90;;;;;;5090723;28;20081;-62
2021/04/03 11:57:22;;;;;;;5.43;1.20;;;21.60;35.80;;;;;;5077977;28;20033;-63
2021/04/03 11:59:47;;;;;;;3.65;0.93;;;21.60;36.40;;;;;;5086235;28;20031;-63
2021/04/03 12:02:14;;;;;;;6.03;1.30;;;21.60;36.30;;;;;;5072145;28;20033;-63
2021/04/03 12:04:40;;;;;;;5.50;1.42;;;21.60;36.50;;;;;;5074808;28;20088;-64
2021/04/03 12:07:05;;;;;;;3.53;1.30;;;21.60;36.90;;;;;;5090446;28;20024;-64
2021/04/03 12:09:31;;;;;;;5.30;1.38;;;21.60;37.20;;;;;;5090259;28;20036;-62
2021/04/03 12:11:57;;;;;;;6.70;1.20;;;21.60;37.40;;;;;;5076523;28;20412;-64
2021/04/03 12:14:23;;;;;;;6.50;0.88;;;21.60;37.40;;;;;;5071729;28;20052;-65
2021/04/03 12:16:49;;;;;;;7.60;0.95;;;21.60;37.40;;;;;;5082808;28;20032;-59
2021/04/03 12:19:15;;;;;;;3.00;1.02;;;21.60;37.70;;;;;;5090436;28;20044;-65
2021/04/03 12:21:40;;;;;;;3.88;1.20;;;21.60;38.40;;;;;;5074467;28;20022;-62
2021/04/03 12:24:07;;;;;;;3.78;1.10;;;21.60;37.70;;;;;;5084362;28;20028;-64
2021/04/03 12:26:32;;;;;;;3.10;1.23;;;21.60;37.90;;;;;;5089592;28;20043;-66
2021/04/03 12:28:58;;;;;;;3.50;1.00;;;21.60;39.30;;;;;;5089971;28;20024;-56
2021/04/03 12:31:24;;;;;;;2.22;1.17;;;21.60;39.10;;;;;;5086860;28;20028;-49
2021/04/03 12:33:49;;;;;;;3.80;1.15;;;21.60;39.10;;;;;;5074750;28;20029;-55
2021/04/03 12:36:17;;;;;;;3.58;0.80;;;21.60;39.10;;;;;;5086340;28;20392;-55
2021/04/03 12:38:43;;;;;;;3.15;0.90;;;21.60;39.00;;;;;;5094285;28;20043;-54
2021/04/03 12:41:09;;;;;;;3.03;0.80;;;21.60;39.40;;;;;;5093137;28;20028;-56
2021/04/03 12:43:35;;;;;;;6.00;1.05;;;21.60;39.20;;;;;;5093754;28;20024;-55
2021/04/03 12:46:00;;;;;;;9.65;0.80;;;21.60;39.40;;;;;;5085799;28;20466;-51
2021/04/03 12:48:26;;;;;;;5.93;1.10;;;21.60;39.30;;;;;;5075488;28;20039;-52
2021/04/03 12:50:52;;;;;;;4.30;1.25;;;21.80;39.60;;;;;;5079825;28;20024;-59
2021/04/03 12:53:18;;;;;;;6.93;1.00;;;21.90;39.40;;;;;;5093722;28;20122;-57
2021/04/03 12:55:44;;;;;;;7.40;1.00;;;21.90;40.40;;;;;;5073561;28;20103;-54